sensor_id;sensor_type;location;lat;lon;timestamp;temperature;humidity
14182;DHT22;7171;50.936;6.764;2023-01-29T00:00:52;0.70;99.90
14182;DHT22;7171;50.936;6.764;2023-01-29T00:03:19;0.70;99.90
14182;DHT22;7171;50.936;6.764;2023-01-29T00:05:46;0.70;99.90
14182;DHT22;7171;50.936;6.764;2023-01-29T00:08:13;0.70;99.90
14182;DHT22;7171;50.936;6.764;2023-01-29T00:10:40;0.70;99.90
14182;DHT22;7171;50.936;6.764;2023-01-29T00:13:06;0.70;99.90
14182;DHT22;7171;50.936;6.764;2023-01-29T00:15:33;0.60;99.90
14182;DHT22;7171;50.936;6.764;2023-01-29T00:18:01;0.60;99.90
14182;DHT22;7171;50.936;6.764;2023-01-29T00:20:28;0.60;99.90
14182;DHT22;7171;50.936;6.764;2023-01-29T00:22:54;0.60;99.90
14182;DHT22;7171;50.936;6.764;2023-01-29T00:25:21;0.60;99.90
14182;DHT22;7171;50.936;6.764;2023-01-29T00:27:48;0.60;99.90
14182;DHT22;7171;50.936;6.764;2023-01-29T00:30:15;0.60;99.90
14182;DHT22;7171;50.936;6.764;2023-01-29T00:32:43;0.60;99.90
14182;DHT22;7171;50.936;6.764;2023-01-29T00:35:11;0.60;99.90
14182;DHT22;7171;50.936;6.764;2023-01-29T00:37:38;0.60;99.90
14182;DHT22;7171;50.936;6.764;2023-01-29T00:40:05;0.60;99.90
14182;DHT22;7171;50.936;6.764;2023-01-29T00:42:32;0.50;99.90
14182;DHT22;7171;50.936;6.764;2023-01-29T00:45:17;0.50;99.90
14182;DHT22;7171;50.936;6.764;2023-01-29T00:50:14;0.40;99.90
14182;DHT22;7171;50.936;6.764;2023-01-29T00:52:41;0.20;99.90
14182;DHT22;7171;50.936;6.764;2023-01-29T00:55:09;0.30;99.90
14182;DHT22;7171;50.936;6.764;2023-01-29T01:00:07;0.30;99.90
14182;DHT22;7171;50.936;6.764;2023-01-29T01:02:34;0.30;99.90
14182;DHT22;7171;50.936;6.764;2023-01-29T01:05:20;0.30;99.90
14182;DHT22;7171;50.936;6.764;2023-01-29T01:07:48;0.30;99.90
14182;DHT22;7171;50.936;6.764;2023-01-29T01:10:17;0.30;99.90
14182;DHT22;7171;50.936;6.764;2023-01-29T01:12:52;0.30;99.90
14182;DHT22;7171;50.936;6.764;2023-01-29T01:15:20;0.30;99.90
14182;DHT22;7171;50.936;6.764;2023-01-29T01:17:47;0.30;99.90
14182;DHT22;7171;50.936;6.764;2023-01-29T01:20:14;0.30;99.90
14182;DHT22;7171;50.936;6.764;2023-01-29T01:22:42;0.30;99.90
14182;DHT22;7171;50.936;6.764;2023-01-29T01:25:09;0.30;99.90
14182;DHT22;7171;50.936;6.764;2023-01-29T01:27:36;0.30;99.90
14182;DHT22;7171;50.936;6.764;2023-01-29T01:30:08;0.30;99.90
14182;DHT22;7171;50.936;6.764;2023-01-29T01:32:35;0.20;99.90
14182;DHT22;7171;50.936;6.764;2023-01-29T01:35:01;0.20;99.90
14182;DHT22;7171;50.936;6.764;2023-01-29T01:37:28;0.20;99.90
14182;DHT22;7171;50.936;6.764;2023-01-29T01:39:56;0.20;99.90
14182;DHT22;7171;50.936;6.764;2023-01-29T01:42:27;0.20;99.90
14182;DHT22;7171;50.936;6.764;2023-01-29T01:44:57;0.20;99.90
14182;DHT22;7171;50.936;6.764;2023-01-29T01:47:31;0.20;99.90
14182;DHT22;7171;50.936;6.764;2023-01-29T01:50:02;0.20;99.90
14182;DHT22;7171;50.936;6.764;2023-01-29T01:52:33;0.20;99.90
14182;DHT22;7171;50.936;6.764;2023-01-29T01:55:02;0.20;99.90
14182;DHT22;7171;50.936;6.764;2023-01-29T01:57:30;0.20;99.90
14182;DHT22;7171;50.936;6.764;2023-01-29T02:00:03;0.20;99.90
14182;DHT22;7171;50.936;6.764;2023-01-29T02:02:35;0.20;99.90
14182;DHT22;7171;50.936;6.764;2023-01-29T02:05:19;0.10;99.90
14182;DHT22;7171;50.936;6.764;2023-01-29T02:08:04;0.10;99.90
14182;DHT22;7171;50.936;6.764;2023-01-29T02:10:49;0.00;99.90
14182;DHT22;7171;50.936;6.764;2023-01-29T02:13:16;0.00;99.90
14182;DHT22;7171;50.936;6.764;2023-01-29T02:15:44;0.00;99.90
14182;DHT22;7171;50.936;6.764;2023-01-29T02:18:14;0.00;99.90
14182;DHT22;7171;50.936;6.764;2023-01-29T02:20:43;0.00;99.90
14182;DHT22;7171;50.936;6.764;2023-01-29T02:23:31;0.00;99.90
14182;DHT22;7171;50.936;6.764;2023-01-29T02:26:18;0.00;99.90
14182;DHT22;7171;50.936;6.764;2023-01-29T02:28:53;0.00;99.90
14182;DHT22;7171;50.936;6.764;2023-01-29T02:31:28;0.00;99.90
14182;DHT22;7171;50.936;6.764;2023-01-29T02:34:05;0.00;99.90
14182;DHT22;7171;50.936;6.764;2023-01-29T02:36:41;0.00;99.90
14182;DHT22;7171;50.936;6.764;2023-01-29T02:39:15;0.00;99.90
14182;DHT22;7171;50.936;6.764;2023-01-29T02:41:47;0.10;99.90
14182;DHT22;7171;50.936;6.764;2023-01-29T02:44:25;0.10;99.90
14182;DHT22;7171;50.936;6.764;2023-01-29T02:47:00;0.10;99.90
14182;DHT22;7171;50.936;6.764;2023-01-29T02:49:33;0.10;99.90
14182;DHT22;7171;50.936;6.764;2023-01-29T02:52:05;0.10;99.90
14182;DHT22;7171;50.936;6.764;2023-01-29T02:54:40;0.10;99.90
14182;DHT22;7171;50.936;6.764;2023-01-29T02:57:14;0.00;99.90
14182;DHT22;7171;50.936;6.764;2023-01-29T02:59:46;0.00;99.90
14182;DHT22;7171;50.936;6.764;2023-01-29T03:02:17;0.00;99.90
14182;DHT22;7171;50.936;6.764;2023-01-29T03:04:51;0.00;99.90
14182;DHT22;7171;50.936;6.764;2023-01-29T03:07:24;0.00;99.90
14182;DHT22;7171;50.936;6.764;2023-01-29T03:10:12;-0.10;99.90
14182;DHT22;7171;50.936;6.764;2023-01-29T03:12:43;-0.10;99.90
14182;DHT22;7171;50.936;6.764;2023-01-29T03:15:17;-0.10;99.90
14182;DHT22;7171;50.936;6.764;2023-01-29T03:17:53;-0.20;99.90
14182;DHT22;7171;50.936;6.764;2023-01-29T03:20:23;-0.20;99.90
14182;DHT22;7171;50.936;6.764;2023-01-29T03:22:57;-0.20;99.90
14182;DHT22;7171;50.936;6.764;2023-01-29T03:25:27;-0.20;99.90
14182;DHT22;7171;50.936;6.764;2023-01-29T03:28:14;-0.20;99.90
14182;DHT22;7171;50.936;6.764;2023-01-29T03:31:03;-0.20;99.90
14182;DHT22;7171;50.936;6.764;2023-01-29T03:33:50;-0.20;99.90
14182;DHT22;7171;50.936;6.764;2023-01-29T03:36:21;-0.20;99.90
14182;DHT22;7171;50.936;6.764;2023-01-29T03:38:48;-0.20;99.90
14182;DHT22;7171;50.936;6.764;2023-01-29T03:41:22;-0.20;99.90
14182;DHT22;7171;50.936;6.764;2023-01-29T03:43:55;-0.20;99.90
14182;DHT22;7171;50.936;6.764;2023-01-29T03:46:32;-0.20;99.90
14182;DHT22;7171;50.936;6.764;2023-01-29T03:49:08;-0.20;99.90
14182;DHT22;7171;50.936;6.764;2023-01-29T03:51:45;-0.20;99.90
14182;DHT22;7171;50.936;6.764;2023-01-29T03:54:20;-0.20;99.90
14182;DHT22;7171;50.936;6.764;2023-01-29T03:56:56;-0.30;99.90
14182;DHT22;7171;50.936;6.764;2023-01-29T03:59:32;-0.30;99.90
14182;DHT22;7171;50.936;6.764;2023-01-29T04:02:05;-0.40;99.90
14182;DHT22;7171;50.936;6.764;2023-01-29T04:04:34;-0.40;99.90
14182;DHT22;7171;50.936;6.764;2023-01-29T04:07:05;-0.40;99.90
14182;DHT22;7171;50.936;6.764;2023-01-29T04:09:38;-0.40;99.90
14182;DHT22;7171;50.936;6.764;2023-01-29T04:12:07;-0.50;99.90
14182;DHT22;7171;50.936;6.764;2023-01-29T04:14:35;-0.50;99.90
14182;DHT22;7171;50.936;6.764;2023-01-29T04:17:07;-0.50;99.90
14182;DHT22;7171;50.936;6.764;2023-01-29T04:19:35;-0.50;99.90
14182;DHT22;7171;50.936;6.764;2023-01-29T04:22:06;-0.50;99.90
14182;DHT22;7171;50.936;6.764;2023-01-29T04:24:36;-0.50;99.90
14182;DHT22;7171;50.936;6.764;2023-01-29T04:27:20;-0.60;99.90
14182;DHT22;7171;50.936;6.764;2023-01-29T04:29:56;-0.60;99.90
14182;DHT22;7171;50.936;6.764;2023-01-29T04:32:31;-0.60;99.90
14182;DHT22;7171;50.936;6.764;2023-01-29T04:35:08;-0.60;99.90
14182;DHT22;7171;50.936;6.764;2023-01-29T04:37:40;-0.60;99.90
14182;DHT22;7171;50.936;6.764;2023-01-29T04:40:17;-0.60;99.90
14182;DHT22;7171;50.936;6.764;2023-01-29T04:42:49;-0.60;99.90
14182;DHT22;7171;50.936;6.764;2023-01-29T04:45:25;-0.60;99.90
14182;DHT22;7171;50.936;6.764;2023-01-29T04:48:00;-0.60;99.90
14182;DHT22;7171;50.936;6.764;2023-01-29T04:50:32;-0.60;99.90
14182;DHT22;7171;50.936;6.764;2023-01-29T04:53:06;-0.60;99.90
14182;DHT22;7171;50.936;6.764;2023-01-29T04:55:39;-0.60;99.90
14182;DHT22;7171;50.936;6.764;2023-01-29T04:58:11;-0.60;99.90
14182;DHT22;7171;50.936;6.764;2023-01-29T05:00:41;-0.60;99.90
14182;DHT22;7171;50.936;6.764;2023-01-29T05:03:11;-0.60;99.90
14182;DHT22;7171;50.936;6.764;2023-01-29T05:05:40;-0.60;99.90
14182;DHT22;7171;50.936;6.764;2023-01-29T05:08:08;-0.60;99.90
14182;DHT22;7171;50.936;6.764;2023-01-29T05:10:38;-0.60;99.90
14182;DHT22;7171;50.936;6.764;2023-01-29T05:13:09;-0.60;99.90
14182;DHT22;7171;50.936;6.764;2023-01-29T05:15:38;-0.60;99.90
14182;DHT22;7171;50.936;6.764;2023-01-29T05:18:05;-0.60;99.90
14182;DHT22;7171;50.936;6.764;2023-01-29T05:20:36;-0.70;99.90
14182;DHT22;7171;50.936;6.764;2023-01-29T05:23:04;-0.70;99.90
14182;DHT22;7171;50.936;6.764;2023-01-29T05:25:34;-0.70;99.90
14182;DHT22;7171;50.936;6.764;2023-01-29T05:28:01;-0.70;99.90
14182;DHT22;7171;50.936;6.764;2023-01-29T05:30:31;-0.70;99.90
14182;DHT22;7171;50.936;6.764;2023-01-29T05:32:58;-0.70;99.90
14182;DHT22;7171;50.936;6.764;2023-01-29T05:35:25;-0.70;99.90
14182;DHT22;7171;50.936;6.764;2023-01-29T05:37:54;-0.70;99.90
14182;DHT22;7171;50.936;6.764;2023-01-29T05:40:21;-0.70;99.90
14182;DHT22;7171;50.936;6.764;2023-01-29T05:42:48;-0.70;99.90
14182;DHT22;7171;50.936;6.764;2023-01-29T05:45:15;-0.70;99.90
14182;DHT22;7171;50.936;6.764;2023-01-29T05:47:43;-0.70;99.90
14182;DHT22;7171;50.936;6.764;2023-01-29T05:50:11;-0.70;99.90
14182;DHT22;7171;50.936;6.764;2023-01-29T05:52:38;-0.70;99.90
14182;DHT22;7171;50.936;6.764;2023-01-29T05:55:07;-0.70;99.90
14182;DHT22;7171;50.936;6.764;2023-01-29T05:57:34;-0.70;99.90
14182;DHT22;7171;50.936;6.764;2023-01-29T06:00:01;-0.70;99.90
14182;DHT22;7171;50.936;6.764;2023-01-29T06:02:29;-0.70;99.90
14182;DHT22;7171;50.936;6.764;2023-01-29T06:04:55;-0.70;99.90
14182;DHT22;7171;50.936;6.764;2023-01-29T06:07:22;-0.70;99.90
14182;DHT22;7171;50.936;6.764;2023-01-29T06:09:49;-0.70;99.90
14182;DHT22;7171;50.936;6.764;2023-01-29T06:12:17;-0.70;99.90
14182;DHT22;7171;50.936;6.764;2023-01-29T06:14:44;-0.70;99.90
14182;DHT22;7171;50.936;6.764;2023-01-29T06:17:10;-0.70;99.90
14182;DHT22;7171;50.936;6.764;2023-01-29T06:19:37;-0.80;99.90
14182;DHT22;7171;50.936;6.764;2023-01-29T06:22:04;-0.70;99.90
14182;DHT22;7171;50.936;6.764;2023-01-29T06:24:30;-0.70;99.90
14182;DHT22;7171;50.936;6.764;2023-01-29T06:26:58;-0.70;99.90
14182;DHT22;7171;50.936;6.764;2023-01-29T06:29:26;-0.80;99.90
14182;DHT22;7171;50.936;6.764;2023-01-29T06:31:52;-0.80;99.90
14182;DHT22;7171;50.936;6.764;2023-01-29T06:34:19;-0.70;99.90
14182;DHT22;7171;50.936;6.764;2023-01-29T06:36:46;-0.70;99.90
14182;DHT22;7171;50.936;6.764;2023-01-29T06:39:12;-0.70;99.90
14182;DHT22;7171;50.936;6.764;2023-01-29T06:41:39;-0.80;99.90
14182;DHT22;7171;50.936;6.764;2023-01-29T06:44:06;-0.70;99.90
14182;DHT22;7171;50.936;6.764;2023-01-29T06:46:34;-0.80;99.90
14182;DHT22;7171;50.936;6.764;2023-01-29T06:49:01;-0.80;99.90
14182;DHT22;7171;50.936;6.764;2023-01-29T06:51:28;-0.80;99.90
14182;DHT22;7171;50.936;6.764;2023-01-29T06:53:54;-0.80;99.90
14182;DHT22;7171;50.936;6.764;2023-01-29T06:56:21;-0.80;99.90
14182;DHT22;7171;50.936;6.764;2023-01-29T06:58:48;-0.80;99.90
14182;DHT22;7171;50.936;6.764;2023-01-29T07:01:15;-0.70;99.90
14182;DHT22;7171;50.936;6.764;2023-01-29T07:03:43;-0.70;99.90
14182;DHT22;7171;50.936;6.764;2023-01-29T07:06:10;-0.60;99.90
14182;DHT22;7171;50.936;6.764;2023-01-29T07:08:37;-0.60;99.90
14182;DHT22;7171;50.936;6.764;2023-01-29T07:11:05;-0.60;99.90
14182;DHT22;7171;50.936;6.764;2023-01-29T07:13:32;-0.60;99.90
14182;DHT22;7171;50.936;6.764;2023-01-29T07:15:59;-0.50;99.90
14182;DHT22;7171;50.936;6.764;2023-01-29T07:18:27;-0.50;99.90
14182;DHT22;7171;50.936;6.764;2023-01-29T07:20:55;-0.40;99.90
14182;DHT22;7171;50.936;6.764;2023-01-29T07:23:22;-0.40;99.90
14182;DHT22;7171;50.936;6.764;2023-01-29T07:25:49;-0.40;99.90
14182;DHT22;7171;50.936;6.764;2023-01-29T07:28:16;-0.40;99.90
14182;DHT22;7171;50.936;6.764;2023-01-29T07:30:43;-0.30;99.90
14182;DHT22;7171;50.936;6.764;2023-01-29T07:33:10;-0.30;99.90
14182;DHT22;7171;50.936;6.764;2023-01-29T07:35:38;-0.30;99.90
14182;DHT22;7171;50.936;6.764;2023-01-29T07:38:07;-0.20;99.90
14182;DHT22;7171;50.936;6.764;2023-01-29T07:40:34;-0.20;99.90
14182;DHT22;7171;50.936;6.764;2023-01-29T07:43:03;-0.20;99.90
14182;DHT22;7171;50.936;6.764;2023-01-29T07:45:30;-0.10;99.90
14182;DHT22;7171;50.936;6.764;2023-01-29T07:47:58;-0.10;99.90
14182;DHT22;7171;50.936;6.764;2023-01-29T07:50:26;0.00;99.90
14182;DHT22;7171;50.936;6.764;2023-01-29T07:52:53;0.00;99.90
14182;DHT22;7171;50.936;6.764;2023-01-29T07:55:21;0.00;99.90
14182;DHT22;7171;50.936;6.764;2023-01-29T07:57:54;0.00;99.90
14182;DHT22;7171;50.936;6.764;2023-01-29T08:00:21;0.10;99.90
14182;DHT22;7171;50.936;6.764;2023-01-29T08:02:48;0.10;99.90
14182;DHT22;7171;50.936;6.764;2023-01-29T08:05:15;0.20;99.90
14182;DHT22;7171;50.936;6.764;2023-01-29T08:07:41;0.20;99.90
14182;DHT22;7171;50.936;6.764;2023-01-29T08:10:09;0.30;99.90
14182;DHT22;7171;50.936;6.764;2023-01-29T08:12:37;0.30;99.90
14182;DHT22;7171;50.936;6.764;2023-01-29T08:15:05;0.30;99.90
14182;DHT22;7171;50.936;6.764;2023-01-29T08:17:31;0.40;99.90
14182;DHT22;7171;50.936;6.764;2023-01-29T08:19:58;0.40;99.90
14182;DHT22;7171;50.936;6.764;2023-01-29T08:22:25;0.40;99.90
14182;DHT22;7171;50.936;6.764;2023-01-29T08:24:51;0.50;99.90
14182;DHT22;7171;50.936;6.764;2023-01-29T08:27:18;0.50;99.90
14182;DHT22;7171;50.936;6.764;2023-01-29T08:29:46;0.50;99.90
14182;DHT22;7171;50.936;6.764;2023-01-29T08:32:13;0.50;99.90
14182;DHT22;7171;50.936;6.764;2023-01-29T08:34:40;0.50;99.90
14182;DHT22;7171;50.936;6.764;2023-01-29T08:37:06;0.50;99.90
14182;DHT22;7171;50.936;6.764;2023-01-29T08:39:33;0.50;99.90
14182;DHT22;7171;50.936;6.764;2023-01-29T08:42:00;0.50;99.90
14182;DHT22;7171;50.936;6.764;2023-01-29T08:44:26;0.50;99.90
14182;DHT22;7171;50.936;6.764;2023-01-29T08:46:54;0.60;99.90
14182;DHT22;7171;50.936;6.764;2023-01-29T08:49:21;0.60;99.90
14182;DHT22;7171;50.936;6.764;2023-01-29T08:51:48;0.70;99.90
14182;DHT22;7171;50.936;6.764;2023-01-29T08:54:15;0.70;99.90
14182;DHT22;7171;50.936;6.764;2023-01-29T08:56:42;0.80;99.90
14182;DHT22;7171;50.936;6.764;2023-01-29T08:59:09;0.80;99.90
14182;DHT22;7171;50.936;6.764;2023-01-29T09:01:36;0.80;99.90
14182;DHT22;7171;50.936;6.764;2023-01-29T09:04:05;0.90;99.90
14182;DHT22;7171;50.936;6.764;2023-01-29T09:06:31;0.90;99.90
14182;DHT22;7171;50.936;6.764;2023-01-29T09:08:58;0.90;99.90
14182;DHT22;7171;50.936;6.764;2023-01-29T09:11:25;1.00;99.90
14182;DHT22;7171;50.936;6.764;2023-01-29T09:13:52;1.00;99.90
14182;DHT22;7171;50.936;6.764;2023-01-29T09:16:19;1.00;99.90
14182;DHT22;7171;50.936;6.764;2023-01-29T09:18:45;1.00;99.90
14182;DHT22;7171;50.936;6.764;2023-01-29T09:21:13;1.10;99.90
14182;DHT22;7171;50.936;6.764;2023-01-29T09:23:40;1.10;99.90
14182;DHT22;7171;50.936;6.764;2023-01-29T09:26:07;1.20;99.90
14182;DHT22;7171;50.936;6.764;2023-01-29T09:28:34;1.20;99.90
14182;DHT22;7171;50.936;6.764;2023-01-29T09:31:00;1.20;99.90
14182;DHT22;7171;50.936;6.764;2023-01-29T09:33:27;1.30;99.90
14182;DHT22;7171;50.936;6.764;2023-01-29T09:35:55;1.30;99.90
14182;DHT22;7171;50.936;6.764;2023-01-29T09:38:23;1.30;99.90
14182;DHT22;7171;50.936;6.764;2023-01-29T09:40:57;1.30;99.90
14182;DHT22;7171;50.936;6.764;2023-01-29T09:43:31;1.40;99.90
14182;DHT22;7171;50.936;6.764;2023-01-29T09:46:06;1.40;99.90
14182;DHT22;7171;50.936;6.764;2023-01-29T09:48:38;1.50;99.90
14182;DHT22;7171;50.936;6.764;2023-01-29T09:51:10;1.50;99.90
14182;DHT22;7171;50.936;6.764;2023-01-29T09:53:45;1.50;99.90
14182;DHT22;7171;50.936;6.764;2023-01-29T09:56:18;1.50;99.90
14182;DHT22;7171;50.936;6.764;2023-01-29T09:58:45;1.60;99.90
14182;DHT22;7171;50.936;6.764;2023-01-29T10:01:16;1.60;99.90
14182;DHT22;7171;50.936;6.764;2023-01-29T10:03:58;1.60;99.90
14182;DHT22;7171;50.936;6.764;2023-01-29T10:06:40;1.70;99.90
14182;DHT22;7171;50.936;6.764;2023-01-29T10:09:37;1.70;99.90
14182;DHT22;7171;50.936;6.764;2023-01-29T10:12:15;1.80;99.90
14182;DHT22;7171;50.936;6.764;2023-01-29T10:14:53;1.80;99.90
14182;DHT22;7171;50.936;6.764;2023-01-29T10:17:48;1.80;99.90
14182;DHT22;7171;50.936;6.764;2023-01-29T10:20:32;1.90;99.90
14182;DHT22;7171;50.936;6.764;2023-01-29T10:23:13;1.90;99.90
14182;DHT22;7171;50.936;6.764;2023-01-29T10:25:44;1.90;99.90
14182;DHT22;7171;50.936;6.764;2023-01-29T10:28:16;2.00;99.90
14182;DHT22;7171;50.936;6.764;2023-01-29T10:30:47;2.00;99.90
14182;DHT22;7171;50.936;6.764;2023-01-29T10:33:17;2.00;99.90
14182;DHT22;7171;50.936;6.764;2023-01-29T10:35:47;2.00;99.90
14182;DHT22;7171;50.936;6.764;2023-01-29T10:38:37;2.10;99.90
14182;DHT22;7171;50.936;6.764;2023-01-29T10:48:59;2.30;99.90
14182;DHT22;7171;50.936;6.764;2023-01-29T10:51:45;2.40;99.90
14182;DHT22;7171;50.936;6.764;2023-01-29T10:54:30;2.40;99.90
14182;DHT22;7171;50.936;6.764;2023-01-29T10:57:09;2.40;99.90
14182;DHT22;7171;50.936;6.764;2023-01-29T10:59:58;2.50;99.90
14182;DHT22;7171;50.936;6.764;2023-01-29T11:02:28;2.50;99.90
14182;DHT22;7171;50.936;6.764;2023-01-29T11:04:55;2.50;99.90
14182;DHT22;7171;50.936;6.764;2023-01-29T11:07:22;2.60;99.90
14182;DHT22;7171;50.936;6.764;2023-01-29T11:09:55;2.60;99.90
14182;DHT22;7171;50.936;6.764;2023-01-29T11:12:27;2.60;99.90
14182;DHT22;7171;50.936;6.764;2023-01-29T11:14:59;2.70;99.90
14182;DHT22;7171;50.936;6.764;2023-01-29T11:17:28;2.70;99.90
14182;DHT22;7171;50.936;6.764;2023-01-29T11:19:55;2.70;99.90
14182;DHT22;7171;50.936;6.764;2023-01-29T11:22:23;2.80;99.90
14182;DHT22;7171;50.936;6.764;2023-01-29T11:25:09;2.80;99.90
14182;DHT22;7171;50.936;6.764;2023-01-29T11:27:45;2.80;99.90
14182;DHT22;7171;50.936;6.764;2023-01-29T11:30:20;2.80;99.90
14182;DHT22;7171;50.936;6.764;2023-01-29T11:32:50;2.80;99.90
14182;DHT22;7171;50.936;6.764;2023-01-29T11:35:23;2.90;99.90
14182;DHT22;7171;50.936;6.764;2023-01-29T11:37:50;2.90;99.90
14182;DHT22;7171;50.936;6.764;2023-01-29T11:40:37;3.00;99.90
14182;DHT22;7171;50.936;6.764;2023-01-29T11:43:29;3.00;99.90
14182;DHT22;7171;50.936;6.764;2023-01-29T11:45:59;3.10;99.90
14182;DHT22;7171;50.936;6.764;2023-01-29T11:48:32;3.10;99.90
14182;DHT22;7171;50.936;6.764;2023-01-29T11:51:04;3.20;99.90
14182;DHT22;7171;50.936;6.764;2023-01-29T11:53:36;3.20;99.90
14182;DHT22;7171;50.936;6.764;2023-01-29T11:56:06;3.30;99.90
14182;DHT22;7171;50.936;6.764;2023-01-29T11:58:43;3.40;99.90
14182;DHT22;7171;50.936;6.764;2023-01-29T12:01:10;3.40;99.90
14182;DHT22;7171;50.936;6.764;2023-01-29T12:03:41;3.40;99.90
14182;DHT22;7171;50.936;6.764;2023-01-29T12:06:15;3.40;99.90
14182;DHT22;7171;50.936;6.764;2023-01-29T12:08:43;3.50;99.90
14182;DHT22;7171;50.936;6.764;2023-01-29T12:11:26;3.50;99.90
14182;DHT22;7171;50.936;6.764;2023-01-29T12:13:56;3.50;99.90
14182;DHT22;7171;50.936;6.764;2023-01-29T12:16:26;3.50;99.90
14182;DHT22;7171;50.936;6.764;2023-01-29T12:18:57;3.50;99.90
14182;DHT22;7171;50.936;6.764;2023-01-29T12:21:32;3.50;99.90
14182;DHT22;7171;50.936;6.764;2023-01-29T12:24:02;3.60;99.90
14182;DHT22;7171;50.936;6.764;2023-01-29T12:26:34;3.60;99.90
14182;DHT22;7171;50.936;6.764;2023-01-29T12:29:28;3.60;99.90
14182;DHT22;7171;50.936;6.764;2023-01-29T12:32:03;3.70;99.90
14182;DHT22;7171;50.936;6.764;2023-01-29T12:34:36;3.70;99.90
14182;DHT22;7171;50.936;6.764;2023-01-29T12:37:15;3.70;99.90
14182;DHT22;7171;50.936;6.764;2023-01-29T12:39:44;3.70;99.90
14182;DHT22;7171;50.936;6.764;2023-01-29T12:42:15;3.80;99.90
14182;DHT22;7171;50.936;6.764;2023-01-29T12:44:47;3.80;99.90
14182;DHT22;7171;50.936;6.764;2023-01-29T12:47:19;3.90;99.90
14182;DHT22;7171;50.936;6.764;2023-01-29T12:49:50;3.90;99.90
14182;DHT22;7171;50.936;6.764;2023-01-29T12:52:21;4.00;99.90
14182;DHT22;7171;50.936;6.764;2023-01-29T12:54:54;4.00;99.90
14182;DHT22;7171;50.936;6.764;2023-01-29T12:57:24;4.00;99.90
14182;DHT22;7171;50.936;6.764;2023-01-29T13:00:00;4.10;99.90
14182;DHT22;7171;50.936;6.764;2023-01-29T13:02:32;4.10;99.90
14182;DHT22;7171;50.936;6.764;2023-01-29T13:05:04;4.10;99.90
14182;DHT22;7171;50.936;6.764;2023-01-29T13:07:36;4.20;99.90
14182;DHT22;7171;50.936;6.764;2023-01-29T13:10:09;4.20;99.90
14182;DHT22;7171;50.936;6.764;2023-01-29T13:12:39;4.30;99.90
14182;DHT22;7171;50.936;6.764;2023-01-29T13:15:20;4.30;99.90
14182;DHT22;7171;50.936;6.764;2023-01-29T13:17:51;4.40;99.90
14182;DHT22;7171;50.936;6.764;2023-01-29T13:20:23;4.40;99.90
14182;DHT22;7171;50.936;6.764;2023-01-29T13:22:52;4.70;99.90
14182;DHT22;7171;50.936;6.764;2023-01-29T13:25:20;4.40;99.90
14182;DHT22;7171;50.936;6.764;2023-01-29T13:27:48;4.50;99.90
14182;DHT22;7171;50.936;6.764;2023-01-29T13:30:27;4.50;99.90
14182;DHT22;7171;50.936;6.764;2023-01-29T13:32:55;4.50;99.90
14182;DHT22;7171;50.936;6.764;2023-01-29T13:35:34;4.50;99.90
14182;DHT22;7171;50.936;6.764;2023-01-29T13:38:03;4.50;99.90
14182;DHT22;7171;50.936;6.764;2023-01-29T13:40:31;4.60;99.90
14182;DHT22;7171;50.936;6.764;2023-01-29T13:43:00;4.60;99.90
14182;DHT22;7171;50.936;6.764;2023-01-29T13:45:33;4.60;99.90
14182;DHT22;7171;50.936;6.764;2023-01-29T13:48:09;4.70;99.90
14182;DHT22;7171;50.936;6.764;2023-01-29T13:50:39;4.70;99.90
14182;DHT22;7171;50.936;6.764;2023-01-29T13:53:15;4.70;99.90
14182;DHT22;7171;50.936;6.764;2023-01-29T13:55:43;4.80;99.90
14182;DHT22;7171;50.936;6.764;2023-01-29T13:58:14;4.80;99.90
14182;DHT22;7171;50.936;6.764;2023-01-29T14:00:52;4.80;99.90
14182;DHT22;7171;50.936;6.764;2023-01-29T14:03:55;4.80;99.90
14182;DHT22;7171;50.936;6.764;2023-01-29T14:06:43;4.80;99.90
14182;DHT22;7171;50.936;6.764;2023-01-29T14:12:43;4.80;99.90
14182;DHT22;7171;50.936;6.764;2023-01-29T14:15:30;4.80;99.90
14182;DHT22;7171;50.936;6.764;2023-01-29T14:20:59;4.90;99.90
14182;DHT22;7171;50.936;6.764;2023-01-29T14:23:37;4.90;99.90
14182;DHT22;7171;50.936;6.764;2023-01-29T14:26:21;4.90;99.90
14182;DHT22;7171;50.936;6.764;2023-01-29T14:28:55;4.90;99.90
14182;DHT22;7171;50.936;6.764;2023-01-29T14:31:31;4.90;99.90
14182;DHT22;7171;50.936;6.764;2023-01-29T14:34:05;4.90;99.90
14182;DHT22;7171;50.936;6.764;2023-01-29T14:36:38;4.90;99.90
14182;DHT22;7171;50.936;6.764;2023-01-29T14:39:05;4.90;99.90
14182;DHT22;7171;50.936;6.764;2023-01-29T14:41:33;4.80;99.90
14182;DHT22;7171;50.936;6.764;2023-01-29T14:44:55;4.90;99.90
14182;DHT22;7171;50.936;6.764;2023-01-29T14:47:53;4.90;99.90
14182;DHT22;7171;50.936;6.764;2023-01-29T14:50:59;4.80;99.90
14182;DHT22;7171;50.936;6.764;2023-01-29T14:53:43;4.80;99.90
14182;DHT22;7171;50.936;6.764;2023-01-29T14:56:14;4.80;99.90
14182;DHT22;7171;50.936;6.764;2023-01-29T14:58:45;4.80;99.90
14182;DHT22;7171;50.936;6.764;2023-01-29T15:01:20;4.80;99.90
14182;DHT22;7171;50.936;6.764;2023-01-29T15:03:49;4.80;99.90
14182;DHT22;7171;50.936;6.764;2023-01-29T15:06:30;4.80;99.90
14182;DHT22;7171;50.936;6.764;2023-01-29T15:09:04;4.80;99.90
14182;DHT22;7171;50.936;6.764;2023-01-29T15:11:39;4.80;99.90
14182;DHT22;7171;50.936;6.764;2023-01-29T15:14:15;4.80;99.90
14182;DHT22;7171;50.936;6.764;2023-01-29T15:16:53;4.80;99.90
14182;DHT22;7171;50.936;6.764;2023-01-29T15:19:24;4.80;99.90
14182;DHT22;7171;50.936;6.764;2023-01-29T15:22:09;4.90;99.90
14182;DHT22;7171;50.936;6.764;2023-01-29T15:24:37;4.90;99.90
14182;DHT22;7171;50.936;6.764;2023-01-29T15:27:06;4.90;99.90
14182;DHT22;7171;50.936;6.764;2023-01-29T15:29:35;4.90;99.90
14182;DHT22;7171;50.936;6.764;2023-01-29T15:32:03;4.90;99.90
14182;DHT22;7171;50.936;6.764;2023-01-29T15:34:31;4.90;99.90
14182;DHT22;7171;50.936;6.764;2023-01-29T15:36:58;4.90;99.90
14182;DHT22;7171;50.936;6.764;2023-01-29T15:39:26;4.90;99.90
14182;DHT22;7171;50.936;6.764;2023-01-29T15:42:11;5.00;99.90
14182;DHT22;7171;50.936;6.764;2023-01-29T15:44:43;4.90;99.90
14182;DHT22;7171;50.936;6.764;2023-01-29T15:47:11;4.90;99.90
14182;DHT22;7171;50.936;6.764;2023-01-29T15:49:39;4.90;99.90
14182;DHT22;7171;50.936;6.764;2023-01-29T15:52:07;4.90;99.90
14182;DHT22;7171;50.936;6.764;2023-01-29T15:54:40;4.90;99.90
14182;DHT22;7171;50.936;6.764;2023-01-29T15:57:17;4.90;99.90
14182;DHT22;7171;50.936;6.764;2023-01-29T15:59:44;4.90;99.90
14182;DHT22;7171;50.936;6.764;2023-01-29T16:02:34;4.90;99.90
14182;DHT22;7171;50.936;6.764;2023-01-29T16:05:03;4.90;99.90
14182;DHT22;7171;50.936;6.764;2023-01-29T16:07:30;4.90;99.90
14182;DHT22;7171;50.936;6.764;2023-01-29T16:09:59;4.90;99.90
14182;DHT22;7171;50.936;6.764;2023-01-29T16:12:26;4.80;99.90
14182;DHT22;7171;50.936;6.764;2023-01-29T16:14:54;4.80;99.90
14182;DHT22;7171;50.936;6.764;2023-01-29T16:17:25;4.80;99.90
14182;DHT22;7171;50.936;6.764;2023-01-29T16:19:57;4.80;99.90
14182;DHT22;7171;50.936;6.764;2023-01-29T16:22:25;4.80;99.90
14182;DHT22;7171;50.936;6.764;2023-01-29T16:24:53;4.80;99.90
14182;DHT22;7171;50.936;6.764;2023-01-29T16:27:23;4.70;99.90
14182;DHT22;7171;50.936;6.764;2023-01-29T16:29:50;4.00;99.90
14182;DHT22;7171;50.936;6.764;2023-01-29T16:32:19;4.70;99.90
14182;DHT22;7171;50.936;6.764;2023-01-29T16:34:47;4.70;99.90
14182;DHT22;7171;50.936;6.764;2023-01-29T16:37:21;4.70;99.90
14182;DHT22;7171;50.936;6.764;2023-01-29T16:39:49;4.70;99.90
14182;DHT22;7171;50.936;6.764;2023-01-29T16:42:32;4.70;99.90
14182;DHT22;7171;50.936;6.764;2023-01-29T16:45:01;4.70;99.90